Osg Honour — WDD6584 — position and weather

sailwx.info

Track history (hours):
 
Tides and Currents Weather Stations Pressure Air Temp Water Temp Dewpoint Dewpoint Depression Visibility Wind Speed Wind Dir Waves Ship Positions

Osg Honour

Owner: OSG Ship Management Inc., Tampa, FL. More information available from US FCC via Universal Licensing System and Coast Guard Vessel Documentation Center.

Last reported at 2017-Nov-18 13:34 UTC. Time now 2017-Nov-18 16:05 UTC.
Position N 26°47' W 079°46'.

Length 181 m; draft 8 m.

Type: Tug. MMSI: 367174890.

Date/timePositionNaut miles runAvg speedWind from/ knotsBaromVisibWave heightAir tempDewpointWater temp
2017-Nov-18 13:34N 26°47' W 079°46'111.8
2017-Nov-18 13:30N 26°47' W 079°46'1211.7
2017-Nov-18 12:29N 26°35' W 079°47'611.7
2017-Nov-18 12:00N 26°29' W 079°48'1211.7
2017-Nov-18 10:57N 26°17' W 079°48'511.6
2017-Nov-18 10:30N 26°12' W 079°49'611.6
2017-Nov-18 10:00N 26°06' W 079°50'612.0
2017-Nov-18 09:30N 26°00' W 079°51'612.5
2017-Nov-18 09:00N 25°54' W 079°52'612.0
2017-Nov-18 08:30N 25°48' W 079°53'611.5
2017-Nov-18 08:00N 25°42' W 079°54'611.4
2017-Nov-18 07:30N 25°37' W 079°55'611.4
2017-Nov-18 07:00N 25°31' W 079°55'611.4
2017-Nov-18 06:30N 25°25' W 079°57'  
Track history (hours):
 
Tides and Currents Weather Stations Pressure Air Temp Water Temp Dewpoint Dewpoint Depression Visibility Wind Speed Wind Dir Waves Ship Positions

Osg Honour

Owner: OSG Ship Management Inc., Tampa, FL. More information available from US FCC via Universal Licensing System and Coast Guard Vessel Documentation Center.

Last reported at 2017-Nov-18 13:34 UTC. Time now 2017-Nov-18 16:05 UTC.
Position N 26°47' W 079°46'.

Length 181 m; draft 8 m.

Type: Tug. MMSI: 367174890.

Date/timePositionNaut miles runAvg speedWind from/ knotsBaromVisibWave heightAir tempDewpointWater temp
2017-Nov-18 13:34N 26°47' W 079°46'111.8
2017-Nov-18 13:30N 26°47' W 079°46'1211.7
2017-Nov-18 12:29N 26°35' W 079°47'611.7
2017-Nov-18 12:00N 26°29' W 079°48'1211.7
2017-Nov-18 10:57N 26°17' W 079°48'511.6
2017-Nov-18 10:30N 26°12' W 079°49'611.6
2017-Nov-18 10:00N 26°06' W 079°50'612.0
2017-Nov-18 09:30N 26°00' W 079°51'612.5
2017-Nov-18 09:00N 25°54' W 079°52'612.0
2017-Nov-18 08:30N 25°48' W 079°53'611.5
2017-Nov-18 08:00N 25°42' W 079°54'611.4
2017-Nov-18 07:30N 25°37' W 079°55'611.4
2017-Nov-18 07:00N 25°31' W 079°55'611.4
2017-Nov-18 06:30N 25°25' W 079°57'  

Dump ship's entire track history